createdAt,value
2023-02-12T00:00:10.244Z,5.81
2023-02-12T00:01:20.553Z,5.81
2023-02-12T00:02:22.876Z,5.80
2023-02-12T00:03:25.215Z,5.82
2023-02-12T00:04:28.952Z,5.82
2023-02-12T00:05:31.590Z,5.83
2023-02-12T00:06:34.553Z,5.82
2023-02-12T00:07:38.584Z,5.83
2023-02-12T00:08:40.814Z,5.82
2023-02-12T00:09:47.846Z,5.83
2023-02-12T00:10:50.005Z,5.82
2023-02-12T00:11:52.234Z,5.82
2023-02-12T00:12:54.778Z,5.83
2023-02-12T00:13:58.436Z,5.83
2023-02-12T00:15:00.722Z,5.84
2023-02-12T00:16:08.471Z,5.86
2023-02-12T00:17:11.164Z,5.84
2023-02-12T00:18:14.653Z,5.85
2023-02-12T00:19:17.908Z,5.84
2023-02-12T00:20:20.204Z,5.86
2023-02-12T00:21:23.454Z,5.86
2023-02-12T00:22:28.202Z,5.86
2023-02-12T00:23:32.053Z,5.87
2023-02-12T00:24:34.338Z,5.86
2023-02-12T00:25:43.832Z,5.86
2023-02-12T00:26:46.016Z,5.87
2023-02-12T00:27:48.291Z,5.87
2023-02-12T00:28:51.438Z,5.86
2023-02-12T00:29:54.061Z,5.86
2023-02-12T00:30:56.316Z,5.86
2023-02-12T00:31:58.695Z,5.87
2023-02-12T00:33:02.906Z,5.86
2023-02-12T00:34:05.161Z,5.87
2023-02-12T00:35:08.199Z,5.87
2023-02-12T00:36:18.282Z,5.89
2023-02-12T00:37:20.446Z,5.88
2023-02-12T00:38:23.082Z,5.89
2023-02-12T00:39:25.388Z,5.89
2023-02-12T00:40:27.815Z,5.89
2023-02-12T00:41:30.606Z,5.89
2023-02-12T00:42:33.017Z,5.89
2023-02-12T00:43:35.402Z,5.88
2023-02-12T00:44:37.670Z,5.90
2023-02-12T00:45:39.856Z,5.90
2023-02-12T00:46:42.143Z,5.92
2023-02-12T00:47:44.631Z,5.89
2023-02-12T00:48:48.238Z,5.92
2023-02-12T00:49:50.542Z,5.91
2023-02-12T00:50:52.735Z,5.93
2023-02-12T00:51:54.968Z,5.93
2023-02-12T00:52:58.201Z,5.92
2023-02-12T00:54:02.277Z,5.93
2023-02-12T00:55:05.325Z,5.91
2023-02-12T00:56:07.920Z,5.92
2023-02-12T00:57:12.113Z,5.92
2023-02-12T00:58:15.713Z,5.92
2023-02-12T00:59:20.746Z,5.93
2023-02-12T01:00:23.482Z,5.93
2023-02-12T01:01:25.726Z,5.94
2023-02-12T01:02:27.933Z,5.92
2023-02-12T01:03:30.651Z,5.93
2023-02-12T01:04:34.754Z,5.92
2023-02-12T01:05:37.576Z,5.92
2023-02-12T01:06:39.847Z,5.92
2023-02-12T01:07:42.100Z,5.93
2023-02-12T01:08:44.307Z,5.93
2023-02-12T01:09:46.564Z,5.92
2023-02-12T01:11:02.394Z,5.93
2023-02-12T01:12:04.962Z,5.92
2023-02-12T01:13:07.916Z,5.92
2023-02-12T01:14:10.152Z,5.94
2023-02-12T01:15:13.893Z,5.93
2023-02-12T01:16:21.304Z,5.93
2023-02-12T01:17:27.972Z,5.93
2023-02-12T01:18:30.693Z,5.93
2023-02-12T01:19:36.328Z,5.91
2023-02-12T01:20:39.950Z,5.92
2023-02-12T01:21:42.487Z,5.91
2023-02-12T01:22:45.548Z,5.93
2023-02-12T01:23:49.929Z,5.92
2023-02-12T01:24:52.257Z,5.90
2023-02-12T01:25:54.928Z,5.89
2023-02-12T01:26:58.926Z,5.89
2023-02-12T01:28:04.120Z,5.92
2023-02-12T01:29:07.940Z,5.92
2023-02-12T01:30:13.061Z,5.91
2023-02-12T01:31:17.651Z,5.89
2023-02-12T01:32:20.241Z,5.89
2023-02-12T01:33:22.484Z,5.90
2023-02-12T01:34:24.815Z,5.89
2023-02-12T01:35:27.892Z,5.91
2023-02-12T01:36:31.934Z,5.91
2023-02-12T01:37:37.300Z,5.91
2023-02-12T01:38:41.157Z,5.90
2023-02-12T01:39:43.889Z,5.92
2023-02-12T01:40:46.149Z,5.92
2023-02-12T01:41:48.405Z,5.92
2023-02-12T01:42:50.636Z,5.93
2023-02-12T01:44:21.309Z,5.93
2023-02-12T01:45:23.636Z,5.92
2023-02-12T01:46:25.907Z,5.91
2023-02-12T01:47:28.231Z,5.93
2023-02-12T01:48:39.283Z,5.92
2023-02-12T01:49:47.535Z,5.93
2023-02-12T01:50:51.931Z,5.92
2023-02-12T01:52:27.547Z,5.92
2023-02-12T01:53:35.406Z,5.92
2023-02-12T01:54:37.999Z,5.90
2023-02-12T01:55:40.936Z,5.92
2023-02-12T01:56:43.824Z,5.90
2023-02-12T01:57:49.477Z,5.92
2023-02-12T01:58:53.475Z,5.93
2023-02-12T01:59:57.903Z,5.92
2023-02-12T02:01:03.420Z,5.90
2023-02-12T02:02:07.258Z,5.92
2023-02-12T02:03:09.913Z,5.92
2023-02-12T02:04:17.398Z,5.91
2023-02-12T02:05:36.396Z,5.92
2023-02-12T02:07:03.342Z,5.91
2023-02-12T02:08:05.945Z,5.92
2023-02-12T02:09:08.180Z,5.93
2023-02-12T02:10:11.538Z,5.93
2023-02-12T02:11:32.622Z,5.92
2023-02-12T02:12:55.867Z,5.92
2023-02-12T02:14:16.665Z,5.91
2023-02-12T02:15:19.069Z,5.91
2023-02-12T02:16:26.716Z,5.91
2023-02-12T02:17:37.007Z,5.90
2023-02-12T02:23:35.071Z,5.90
2023-02-12T02:24:51.534Z,5.89
2023-02-12T02:26:31.604Z,5.89
2023-02-12T02:27:39.309Z,5.87
2023-02-12T02:28:59.591Z,5.88
2023-02-12T02:30:31.871Z,5.87
2023-02-12T02:31:43.593Z,5.86
2023-02-12T02:33:20.013Z,5.85
2023-02-12T02:34:41.821Z,5.87
2023-02-12T02:36:15.817Z,5.87
2023-02-12T02:37:31.571Z,5.85
2023-02-12T02:38:57.336Z,5.84
2023-02-12T02:40:17.007Z,5.84
2023-02-12T02:41:39.240Z,5.84
2023-02-12T02:42:54.556Z,5.83
2023-02-12T02:43:56.925Z,5.83
2023-02-12T02:45:27.135Z,5.83
2023-02-12T02:46:38.084Z,5.82
2023-02-12T02:47:46.323Z,5.81
2023-02-12T02:48:53.829Z,5.81
2023-02-12T02:50:13.904Z,5.81
2023-02-12T02:51:21.474Z,5.81
2023-02-12T02:52:39.927Z,5.81
2023-02-12T02:54:01.011Z,5.81
2023-02-12T02:55:10.726Z,5.80
2023-02-12T02:56:17.915Z,5.81
2023-02-12T02:57:28.998Z,5.81
2023-02-12T02:58:43.636Z,5.81
2023-02-12T02:59:52.719Z,5.80
2023-02-12T03:01:04.243Z,5.80
2023-02-12T03:02:15.516Z,5.80
2023-02-12T03:03:32.616Z,5.82
2023-02-12T03:04:42.601Z,5.81
2023-02-12T03:05:51.356Z,5.81
2023-02-12T03:07:00.146Z,5.81
2023-02-12T03:08:25.844Z,5.82
2023-02-12T03:09:38.550Z,5.82
2023-02-12T03:10:49.996Z,5.81
2023-02-12T03:11:56.896Z,5.81
2023-02-12T03:13:20.877Z,5.81
2023-02-12T03:14:49.696Z,5.80
2023-02-12T03:15:58.592Z,5.81
2023-02-12T03:17:18.482Z,5.81
2023-02-12T03:18:28.328Z,5.81
2023-02-12T03:19:40.132Z,5.81
2023-02-12T03:20:49.979Z,5.81
2023-02-12T03:22:00.275Z,5.81
2023-02-12T03:23:11.950Z,5.82
2023-02-12T03:24:37.924Z,5.82
2023-02-12T03:25:54.749Z,5.82
2023-02-12T03:27:16.228Z,5.81
2023-02-12T03:28:22.873Z,5.82
2023-02-12T03:29:25.997Z,5.81
2023-02-12T03:30:39.578Z,5.81
2023-02-12T03:31:46.620Z,5.81
2023-02-12T03:33:05.613Z,5.81
2023-02-12T03:34:11.708Z,5.81
2023-02-12T03:35:33.094Z,5.84
2023-02-12T03:37:06.320Z,5.83
2023-02-12T03:38:34.292Z,5.83
2023-02-12T03:39:49.601Z,5.82
2023-02-12T03:41:05.213Z,5.81
2023-02-12T03:42:14.746Z,5.82
2023-02-12T03:43:51.819Z,5.81
2023-02-12T03:44:57.574Z,5.81
2023-02-12T03:46:16.898Z,5.82
2023-02-12T03:47:29.563Z,5.81
2023-02-12T03:48:44.223Z,5.81
2023-02-12T03:49:56.127Z,5.81
2023-02-12T03:51:19.305Z,5.80
2023-02-12T03:52:21.724Z,5.80
2023-02-12T03:53:27.212Z,5.79
2023-02-12T03:54:33.853Z,5.79
2023-02-12T03:55:41.447Z,5.79
2023-02-12T03:56:53.732Z,5.79
2023-02-12T03:58:02.733Z,5.80
2023-02-12T03:59:05.764Z,5.81
2023-02-12T04:00:18.561Z,5.80
2023-02-12T04:01:22.912Z,5.80
2023-02-12T04:02:25.509Z,5.80
2023-02-12T04:03:29.741Z,5.80
2023-02-12T04:04:33.786Z,5.80
2023-02-12T04:05:37.128Z,5.80
2023-02-12T04:06:41.544Z,5.80
2023-02-12T04:07:43.774Z,5.80
2023-02-12T04:08:47.065Z,5.80
2023-02-12T04:09:50.730Z,5.81
2023-02-12T04:11:30.191Z,5.80
2023-02-12T04:13:00.045Z,5.80
2023-02-12T04:14:17.429Z,5.81
2023-02-12T04:15:42.961Z,5.81
2023-02-12T04:17:00.350Z,5.82
2023-02-12T04:18:15.044Z,5.82
2023-02-12T04:19:25.906Z,5.82
2023-02-12T04:20:58.597Z,5.81
2023-02-12T04:22:41.193Z,5.80
2023-02-12T04:24:11.400Z,5.80
2023-02-12T04:25:44.630Z,5.79
2023-02-12T04:26:54.819Z,5.78
2023-02-12T04:28:09.563Z,5.77
2023-02-12T04:29:26.397Z,5.78
2023-02-12T04:30:47.536Z,5.77
2023-02-12T04:31:54.442Z,5.76
2023-02-12T04:33:02.772Z,5.76
2023-02-12T04:34:13.062Z,5.75
2023-02-12T04:35:29.915Z,5.75
2023-02-12T04:36:45.520Z,5.74
2023-02-12T04:38:05.352Z,5.75
2023-02-12T04:39:16.256Z,5.73
2023-02-12T04:40:20.818Z,5.74
2023-02-12T04:41:24.751Z,5.73
2023-02-12T04:42:29.490Z,5.74
2023-02-12T04:43:38.134Z,5.76
2023-02-12T04:44:43.520Z,5.75
2023-02-12T04:45:45.840Z,5.74
2023-02-12T04:46:48.141Z,5.74
2023-02-12T04:47:51.740Z,5.74
2023-02-12T04:48:59.159Z,5.74
2023-02-12T04:50:01.449Z,5.74
2023-02-12T04:51:05.064Z,5.73
2023-02-12T04:52:08.598Z,5.75
2023-02-12T04:53:10.954Z,5.76
2023-02-12T04:54:15.091Z,5.74
2023-02-12T04:55:17.556Z,5.76
2023-02-12T04:56:19.814Z,5.76
2023-02-12T04:57:22.239Z,5.74
2023-02-12T04:58:24.451Z,5.74
2023-02-12T04:59:26.771Z,5.74
2023-02-12T05:00:29.109Z,5.75
2023-02-12T05:01:35.186Z,5.74
2023-02-12T05:02:37.619Z,5.76
2023-02-12T05:03:44.867Z,5.75
2023-02-12T05:04:50.234Z,5.76
2023-02-12T05:05:52.473Z,5.75
2023-02-12T05:06:54.701Z,5.75
2023-02-12T05:07:57.159Z,5.75
2023-02-12T05:08:59.367Z,5.75
2023-02-12T05:10:01.775Z,5.74
2023-02-12T05:11:06.465Z,5.76
2023-02-12T05:12:08.761Z,5.76
2023-02-12T05:13:11.724Z,5.75
2023-02-12T05:14:15.572Z,5.74
2023-02-12T05:15:17.789Z,5.74
2023-02-12T05:16:21.230Z,5.73
2023-02-12T05:17:24.383Z,5.74
2023-02-12T05:18:26.645Z,5.73
2023-02-12T05:19:28.854Z,5.73
2023-02-12T05:20:31.053Z,5.73
2023-02-12T05:21:33.695Z,5.74
2023-02-12T05:22:36.232Z,5.74
2023-02-12T05:23:40.717Z,5.74
2023-02-12T05:24:43.051Z,5.74
2023-02-12T05:25:45.299Z,5.74
2023-02-12T05:26:49.242Z,5.73
2023-02-12T05:27:51.396Z,5.74
2023-02-12T05:28:53.800Z,5.73
2023-02-12T05:29:56.960Z,5.73
2023-02-12T05:31:04.313Z,5.74
2023-02-12T05:32:08.200Z,5.74
2023-02-12T05:33:10.956Z,5.73
2023-02-12T05:34:13.992Z,5.74
2023-02-12T05:35:16.322Z,5.73
2023-02-12T05:36:21.395Z,5.75
2023-02-12T05:37:23.602Z,5.75
2023-02-12T05:38:25.808Z,5.74
2023-02-12T05:39:28.184Z,5.74
2023-02-12T05:40:32.433Z,5.75
2023-02-12T05:41:35.718Z,5.74
2023-02-12T05:42:38.798Z,5.74
2023-02-12T05:43:41.923Z,5.74
2023-02-12T05:44:44.463Z,5.74
2023-02-12T05:45:46.677Z,5.76
2023-02-12T05:46:48.966Z,5.74
2023-02-12T05:47:51.177Z,5.76
2023-02-12T05:48:55.160Z,5.74
2023-02-12T05:49:57.404Z,5.74
2023-02-12T05:51:22.215Z,5.76
2023-02-12T05:52:24.392Z,5.74
2023-02-12T05:53:26.612Z,5.74
2023-02-12T05:54:28.842Z,5.74
2023-02-12T05:55:31.413Z,5.74
2023-02-12T05:56:36.294Z,5.73
2023-02-12T05:57:38.626Z,5.74
2023-02-12T05:58:42.334Z,5.74
2023-02-12T05:59:44.621Z,5.73
2023-02-12T06:00:46.873Z,5.73
2023-02-12T06:01:53.253Z,5.74
2023-02-12T06:02:55.515Z,5.73
2023-02-12T06:03:59.466Z,5.73
2023-02-12T06:05:01.914Z,5.72
2023-02-12T06:06:04.810Z,5.73
2023-02-12T06:07:07.582Z,5.71
2023-02-12T06:08:09.779Z,5.71
2023-02-12T06:09:13.830Z,5.71
2023-02-12T06:10:17.217Z,5.71
2023-02-12T06:11:20.640Z,5.72
2023-02-12T06:12:23.838Z,5.71
2023-02-12T06:13:26.021Z,5.70
2023-02-12T06:14:30.802Z,5.69
2023-02-12T06:15:39.950Z,5.70
2023-02-12T06:16:49.357Z,5.70
2023-02-12T06:17:51.649Z,5.69
2023-02-12T06:18:55.763Z,5.69
2023-02-12T06:19:57.936Z,5.68
2023-02-12T06:21:03.617Z,5.70
2023-02-12T06:22:06.032Z,5.68
2023-02-12T06:23:08.226Z,5.67
2023-02-12T06:24:13.190Z,5.67
2023-02-12T06:25:15.347Z,5.66
2023-02-12T06:26:18.134Z,5.66
2023-02-12T06:27:20.324Z,5.67
2023-02-12T06:28:22.771Z,5.67
2023-02-12T06:29:25.029Z,5.66
2023-02-12T06:30:27.700Z,5.66
2023-02-12T06:31:32.357Z,5.67
2023-02-12T06:32:34.641Z,5.66
2023-02-12T06:33:36.888Z,5.64
2023-02-12T06:34:40.209Z,5.65
2023-02-12T06:35:42.512Z,5.65
2023-02-12T06:36:48.276Z,5.66
2023-02-12T06:37:50.945Z,5.65
2023-02-12T06:38:55.733Z,5.65
2023-02-12T06:40:00.183Z,5.65
2023-02-12T06:41:03.309Z,5.64
2023-02-12T06:42:05.611Z,5.65
2023-02-12T06:43:07.869Z,5.64
2023-02-12T06:44:12.262Z,5.66
2023-02-12T06:45:14.626Z,5.65
2023-02-12T06:46:20.116Z,5.65
2023-02-12T06:47:22.356Z,5.65
2023-02-12T06:48:24.591Z,5.65
2023-02-12T06:49:26.825Z,5.65
2023-02-12T06:50:30.157Z,5.65
2023-02-12T06:51:32.515Z,5.65
2023-02-12T06:52:34.749Z,5.65
2023-02-12T06:53:37.223Z,5.65
2023-02-12T06:54:39.404Z,5.66
2023-02-12T06:55:41.643Z,5.67
2023-02-12T06:56:44.936Z,5.66
2023-02-12T06:57:47.198Z,5.66
2023-02-12T06:58:58.976Z,5.66
2023-02-12T07:00:05.684Z,5.67
2023-02-12T07:01:12.541Z,5.66
2023-02-12T07:02:14.804Z,5.66
2023-02-12T07:03:17.001Z,5.66
2023-02-12T07:04:19.271Z,5.66
2023-02-12T07:05:23.893Z,5.66
2023-02-12T07:06:28.270Z,5.66
2023-02-12T07:07:30.446Z,5.66
2023-02-12T07:08:32.866Z,5.66
2023-02-12T07:09:35.092Z,5.66
2023-02-12T07:10:37.358Z,5.66
2023-02-12T07:11:39.755Z,5.66
2023-02-12T07:12:42.345Z,5.65
2023-02-12T07:13:45.607Z,5.66
2023-02-12T07:14:47.795Z,5.66
2023-02-12T07:15:50.474Z,5.65
2023-02-12T07:16:53.471Z,5.65
2023-02-12T07:17:56.498Z,5.66
2023-02-12T07:18:58.801Z,5.65
2023-02-12T07:20:01.073Z,5.65
2023-02-12T07:21:05.048Z,5.64
2023-02-12T07:22:07.318Z,5.65
2023-02-12T07:23:12.842Z,5.66
2023-02-12T07:24:15.845Z,5.65
2023-02-12T07:25:18.095Z,5.66
2023-02-12T07:26:21.814Z,5.65
2023-02-12T07:27:24.258Z,5.65
2023-02-12T07:28:27.321Z,5.66
2023-02-12T07:29:29.614Z,5.65
2023-02-12T07:30:31.998Z,5.66
2023-02-12T07:31:34.522Z,5.66
2023-02-12T07:32:36.849Z,5.67
2023-02-12T07:33:40.520Z,5.66
2023-02-12T07:34:42.719Z,5.66
2023-02-12T07:35:45.125Z,5.67
2023-02-12T07:36:47.332Z,5.67
2023-02-12T07:37:49.604Z,5.66
2023-02-12T07:38:54.370Z,5.67
2023-02-12T07:39:56.832Z,5.68
2023-02-12T07:41:21.927Z,5.69
2023-02-12T07:42:24.239Z,5.68
2023-02-12T07:43:27.074Z,5.69
2023-02-12T07:44:29.505Z,5.69
2023-02-12T07:45:31.787Z,5.70
2023-02-12T07:46:43.503Z,5.70
2023-02-12T07:47:46.749Z,5.70
2023-02-12T07:48:54.193Z,5.72
2023-02-12T07:49:56.480Z,5.71
2023-02-12T07:51:03.539Z,5.71
2023-02-12T07:52:05.795Z,5.72
2023-02-12T07:53:07.985Z,5.72
2023-02-12T07:54:10.855Z,5.73
2023-02-12T07:55:13.086Z,5.72
2023-02-12T07:56:19.824Z,5.73
2023-02-12T07:57:22.562Z,5.73
2023-02-12T07:58:24.704Z,5.73
2023-02-12T07:59:28.698Z,5.75
2023-02-12T08:00:30.885Z,5.76
2023-02-12T08:01:33.987Z,5.76
2023-02-12T08:02:36.320Z,5.75
2023-02-12T08:03:38.556Z,5.76
2023-02-12T08:04:40.888Z,5.76
2023-02-12T08:05:43.128Z,5.77
2023-02-12T08:06:48.070Z,5.77
2023-02-12T08:07:50.331Z,5.78
2023-02-12T08:08:58.197Z,5.78
2023-02-12T08:10:00.555Z,5.79
2023-02-12T08:11:02.697Z,5.80
2023-02-12T08:12:05.076Z,5.81
2023-02-12T08:13:07.308Z,5.81
2023-02-12T08:14:12.995Z,5.82
2023-02-12T08:15:15.701Z,5.82
2023-02-12T08:16:21.235Z,5.83
2023-02-12T08:17:23.471Z,5.83
2023-02-12T08:18:28.223Z,5.84
2023-02-12T08:19:30.474Z,5.84
2023-02-12T08:20:34.572Z,5.85
2023-02-12T08:21:36.973Z,5.85
2023-02-12T08:22:39.184Z,5.86
2023-02-12T08:23:42.144Z,5.87
2023-02-12T08:24:45.797Z,5.87
2023-02-12T08:25:48.196Z,5.88
2023-02-12T08:26:51.402Z,5.89
2023-02-12T08:27:53.894Z,5.90
2023-02-12T08:29:03.014Z,5.90
2023-02-12T08:30:05.861Z,5.91
2023-02-12T08:31:13.061Z,5.91
2023-02-12T08:32:17.354Z,5.92
2023-02-12T08:33:19.594Z,5.93
2023-02-12T08:34:24.310Z,5.93
2023-02-12T08:35:28.090Z,5.94
2023-02-12T08:36:35.751Z,5.94
2023-02-12T08:37:39.397Z,5.94
2023-02-12T08:38:43.102Z,5.95
2023-02-12T08:39:46.450Z,5.96
2023-02-12T08:40:48.666Z,5.97
2023-02-12T08:41:52.065Z,5.97
2023-02-12T08:42:54.402Z,5.98
2023-02-12T08:43:59.996Z,6.00
2023-02-12T08:45:03.574Z,6.00
2023-02-12T08:46:11.626Z,6.02
2023-02-12T08:47:14.190Z,6.01
2023-02-12T08:48:16.384Z,6.02
2023-02-12T08:49:22.077Z,6.04
2023-02-12T08:50:24.535Z,6.04
2023-02-12T08:51:33.281Z,6.05
2023-02-12T08:52:36.042Z,6.07
2023-02-12T08:53:39.980Z,6.06
2023-02-12T08:54:42.431Z,6.07
2023-02-12T08:55:51.043Z,6.10
2023-02-12T08:57:02.169Z,6.09
2023-02-12T08:58:04.813Z,6.10
2023-02-12T08:59:08.578Z,6.10
2023-02-12T09:00:11.279Z,6.11
2023-02-12T09:01:17.143Z,6.12
2023-02-12T09:02:19.572Z,6.14
2023-02-12T09:03:22.056Z,6.14
2023-02-12T09:04:27.228Z,6.16
2023-02-12T09:05:29.474Z,6.16
2023-02-12T09:06:33.900Z,6.16
2023-02-12T09:07:36.147Z,6.18
2023-02-12T09:08:39.453Z,6.19
2023-02-12T09:09:41.812Z,6.18
2023-02-12T09:10:45.098Z,6.20
2023-02-12T09:11:47.513Z,6.22
2023-02-12T09:12:49.821Z,6.24
2023-02-12T09:13:53.384Z,6.26
2023-02-12T09:14:57.891Z,6.26
2023-02-12T09:16:02.861Z,6.28
2023-02-12T09:17:07.641Z,6.29
2023-02-12T09:18:11.938Z,6.31
2023-02-12T09:19:16.567Z,6.33
2023-02-12T09:20:21.698Z,6.34
2023-02-12T09:21:24.373Z,6.37
2023-02-12T09:22:26.660Z,6.37
2023-02-12T09:23:28.996Z,6.38
2023-02-12T09:24:32.453Z,6.39
2023-02-12T09:25:35.374Z,6.39
2023-02-12T09:26:39.398Z,6.40
2023-02-12T09:27:42.752Z,6.42
2023-02-12T09:28:47.224Z,6.44
2023-02-12T09:29:49.404Z,6.45
2023-02-12T09:30:51.842Z,6.46
2023-02-12T09:31:58.708Z,6.46
2023-02-12T09:33:00.924Z,6.47
2023-02-12T09:34:06.401Z,6.49
2023-02-12T09:35:09.124Z,6.50
2023-02-12T09:36:16.872Z,6.51
2023-02-12T09:37:19.065Z,6.51
2023-02-12T09:38:22.041Z,6.53
2023-02-12T09:39:24.490Z,6.54
2023-02-12T09:40:44.013Z,6.55
2023-02-12T09:42:19.319Z,6.58
2023-02-12T09:43:34.056Z,6.60
2023-02-12T09:44:51.244Z,6.63
2023-02-12T09:46:22.005Z,6.65
2023-02-12T09:47:33.735Z,6.67
2023-02-12T09:48:48.246Z,6.69
2023-02-12T09:50:10.052Z,6.70
2023-02-12T09:51:12.757Z,6.72
2023-02-12T09:52:20.748Z,6.76
2023-02-12T09:53:28.274Z,6.78
2023-02-12T09:54:39.077Z,6.78
2023-02-12T09:55:41.318Z,6.81
2023-02-12T09:56:49.629Z,6.81
2023-02-12T09:57:54.881Z,6.85
2023-02-12T09:59:00.664Z,6.87
2023-02-12T10:00:10.645Z,6.89
2023-02-12T10:01:18.734Z,6.91
2023-02-12T10:02:24.125Z,6.94
2023-02-12T10:03:31.097Z,6.95
2023-02-12T10:04:34.735Z,6.97
2023-02-12T10:05:49.467Z,7.00
2023-02-12T10:07:05.621Z,7.02
2023-02-12T10:08:40.787Z,7.05
2023-02-12T10:10:13.569Z,7.08
2023-02-12T10:11:35.525Z,7.11
2023-02-12T10:12:47.179Z,7.13
2023-02-12T10:13:55.239Z,7.15
2023-02-12T10:15:09.188Z,7.16
2023-02-12T10:16:36.037Z,7.18
2023-02-12T10:17:46.677Z,7.19
2023-02-12T10:19:00.230Z,7.21
2023-02-12T10:20:30.054Z,7.23
2023-02-12T10:21:48.898Z,7.26
2023-02-12T10:23:21.765Z,7.28
2023-02-12T10:25:02.958Z,7.29
2023-02-12T10:26:31.308Z,7.33
2023-02-12T10:27:43.482Z,7.34
2023-02-12T10:28:48.176Z,7.35
2023-02-12T10:29:51.918Z,7.37
2023-02-12T10:30:58.923Z,7.38
2023-02-12T10:32:13.364Z,7.40
2023-02-12T10:33:25.830Z,7.43
2023-02-12T10:34:36.507Z,7.45
2023-02-12T10:35:48.611Z,7.45
2023-02-12T10:36:56.011Z,7.48
2023-02-12T10:38:07.891Z,7.50
2023-02-12T10:39:20.479Z,7.53
2023-02-12T10:40:30.148Z,7.54
2023-02-12T10:41:39.233Z,7.56
2023-02-12T10:42:45.250Z,7.59
2023-02-12T10:43:48.688Z,7.61
2023-02-12T10:44:53.517Z,7.62
2023-02-12T10:45:57.545Z,7.64
2023-02-12T10:47:00.041Z,7.65
2023-02-12T10:48:07.010Z,7.67
2023-02-12T10:49:14.044Z,7.69
2023-02-12T10:50:33.686Z,7.72
2023-02-12T10:52:19.510Z,7.75
2023-02-12T10:53:24.883Z,7.76
2023-02-12T10:54:38.172Z,7.78
2023-02-12T10:55:40.425Z,7.79
2023-02-12T10:56:43.361Z,7.80
2023-02-12T10:57:45.606Z,7.82
2023-02-12T10:58:57.893Z,7.83
2023-02-12T11:00:31.006Z,7.86
2023-02-12T11:01:39.706Z,7.87
2023-02-12T11:03:02.872Z,7.89
2023-02-12T11:04:29.939Z,7.91
2023-02-12T11:05:35.906Z,7.91
2023-02-12T11:06:39.037Z,7.92
2023-02-12T11:07:50.343Z,7.95
2023-02-12T11:08:53.251Z,7.96
2023-02-12T11:09:57.003Z,7.99
2023-02-12T11:11:07.767Z,8.00
2023-02-12T11:12:22.426Z,8.02
2023-02-12T11:13:28.769Z,8.03
2023-02-12T11:14:31.238Z,8.04
2023-02-12T11:15:46.113Z,8.05
2023-02-12T11:17:00.162Z,8.08
2023-02-12T11:18:05.691Z,8.09
2023-02-12T11:19:20.629Z,8.09
2023-02-12T11:20:41.998Z,8.11
2023-02-12T11:21:44.238Z,8.12
2023-02-12T11:23:02.418Z,8.13
2023-02-12T11:24:27.270Z,8.13
2023-02-12T11:25:32.545Z,8.14
2023-02-12T11:26:34.956Z,8.14
2023-02-12T11:27:37.138Z,8.17
2023-02-12T11:28:39.515Z,8.16
2023-02-12T11:29:43.457Z,8.16
2023-02-12T11:30:54.347Z,8.16
2023-02-12T11:32:03.074Z,8.17
2023-02-12T11:33:27.903Z,8.17
2023-02-12T11:34:30.614Z,8.16
2023-02-12T11:35:36.385Z,8.18
2023-02-12T11:36:46.276Z,8.18
2023-02-12T11:37:48.470Z,8.17
2023-02-12T11:38:54.816Z,8.17
2023-02-12T11:39:58.870Z,8.17
2023-02-12T11:41:07.012Z,8.16
2023-02-12T11:42:19.920Z,8.17
2023-02-12T11:43:25.014Z,8.17
2023-02-12T11:44:37.382Z,8.18
2023-02-12T11:45:48.275Z,8.17
2023-02-12T11:47:02.224Z,8.18
2023-02-12T11:48:18.756Z,8.18
2023-02-12T11:49:32.109Z,8.17
2023-02-12T11:50:36.013Z,8.17
2023-02-12T11:51:38.366Z,8.17
2023-02-12T11:52:41.187Z,8.17
2023-02-12T11:53:49.582Z,8.17
2023-02-12T11:54:56.798Z,8.16
2023-02-12T11:56:07.513Z,8.17
2023-02-12T11:57:36.977Z,8.17
2023-02-12T11:58:40.002Z,8.16
2023-02-12T11:59:46.206Z,8.16
2023-02-12T12:01:20.245Z,8.14
2023-02-12T12:02:28.283Z,8.15
2023-02-12T12:03:39.330Z,8.14
2023-02-12T12:04:43.987Z,8.13
2023-02-12T12:05:51.482Z,8.14
2023-02-12T12:06:59.329Z,8.12
2023-02-12T12:08:07.601Z,8.12
2023-02-12T12:09:21.754Z,8.11
2023-02-12T12:10:36.683Z,8.10
2023-02-12T12:11:57.780Z,8.10
2023-02-12T12:13:06.868Z,8.09
2023-02-12T12:14:15.263Z,8.08
2023-02-12T12:15:47.492Z,8.08
2023-02-12T12:17:08.316Z,8.07
2023-02-12T12:18:53.032Z,8.07
2023-02-12T12:20:02.477Z,8.06
2023-02-12T12:21:14.076Z,8.06
2023-02-12T12:22:39.575Z,8.04
2023-02-12T12:23:53.104Z,8.04
2023-02-12T12:25:20.698Z,8.04
2023-02-12T12:26:30.155Z,8.04
2023-02-12T12:27:59.128Z,8.03
2023-02-12T12:29:22.147Z,8.03
2023-02-12T12:30:42.597Z,8.02
2023-02-12T12:32:00.747Z,8.01
2023-02-12T12:33:10.789Z,8.01
2023-02-12T12:34:17.265Z,8.01
2023-02-12T12:35:31.899Z,8.01
2023-02-12T12:37:00.092Z,7.99
2023-02-12T12:38:17.866Z,7.99
2023-02-12T12:39:28.843Z,7.98
2023-02-12T12:40:51.391Z,7.98
2023-02-12T12:41:56.857Z,7.95
2023-02-12T12:43:10.792Z,7.95
2023-02-12T12:44:32.041Z,7.95
2023-02-12T12:45:56.345Z,7.95
2023-02-12T12:47:22.497Z,7.92
2023-02-12T12:48:46.862Z,7.92
2023-02-12T12:50:13.410Z,7.91
2023-02-12T12:51:18.906Z,7.90
2023-02-12T12:52:37.964Z,7.88
2023-02-12T12:54:16.546Z,7.88
2023-02-12T12:55:44.137Z,7.87
2023-02-12T12:56:46.704Z,7.85
2023-02-12T12:58:12.225Z,7.84
2023-02-12T12:59:24.641Z,7.83
2023-02-12T13:00:52.575Z,7.83
2023-02-12T13:02:17.918Z,7.82
2023-02-12T13:03:29.429Z,7.82
2023-02-12T13:05:17.143Z,7.81
2023-02-12T13:06:37.852Z,7.81
2023-02-12T13:07:49.119Z,7.81
2023-02-12T13:09:15.435Z,7.80
2023-02-12T13:10:49.490Z,7.80
2023-02-12T13:12:07.005Z,7.79
2023-02-12T13:13:26.441Z,7.80
2023-02-12T13:14:34.723Z,7.79
2023-02-12T13:15:45.947Z,7.80
2023-02-12T13:17:09.748Z,7.81
2023-02-12T13:18:32.755Z,7.81
2023-02-12T13:19:50.585Z,7.81
2023-02-12T13:21:13.701Z,7.81
2023-02-12T13:22:36.210Z,7.82
2023-02-12T13:23:56.508Z,7.82
2023-02-12T13:25:18.674Z,7.83
2023-02-12T13:26:33.748Z,7.83
2023-02-12T13:27:43.294Z,7.84
2023-02-12T13:28:53.648Z,7.85
2023-02-12T13:30:04.199Z,7.85
2023-02-12T13:31:31.816Z,7.85
2023-02-12T13:32:43.552Z,7.85
2023-02-12T13:33:57.471Z,7.86
2023-02-12T13:35:01.611Z,7.86
2023-02-12T13:36:06.457Z,7.87
2023-02-12T13:37:16.719Z,7.89
2023-02-12T13:38:29.728Z,7.88
2023-02-12T13:39:39.626Z,7.88
2023-02-12T13:40:42.935Z,7.87
2023-02-12T13:41:56.341Z,7.89
2023-02-12T13:43:22.905Z,7.89
2023-02-12T13:44:56.459Z,7.88
2023-02-12T13:46:26.040Z,7.88
2023-02-12T13:47:53.278Z,7.88
2023-02-12T13:49:24.461Z,7.89
2023-02-12T13:50:48.362Z,7.88
2023-02-12T13:52:19.616Z,7.89
2023-02-12T13:53:46.549Z,7.88
2023-02-12T13:54:53.558Z,7.87
2023-02-12T13:56:25.926Z,7.87
2023-02-12T13:57:30.756Z,7.87
2023-02-12T13:58:37.571Z,7.87
2023-02-12T13:59:46.937Z,7.87
2023-02-12T14:00:51.991Z,7.87
2023-02-12T14:01:54.336Z,7.87
2023-02-12T14:02:58.756Z,7.86
2023-02-12T14:04:15.864Z,7.88
2023-02-12T14:05:25.010Z,7.88
2023-02-12T14:06:28.835Z,7.88
2023-02-12T14:08:05.350Z,7.87
2023-02-12T14:09:10.959Z,7.88
2023-02-12T14:10:25.794Z,7.88
2023-02-12T14:11:29.715Z,7.88
2023-02-12T14:12:36.044Z,7.89
2023-02-12T14:14:31.885Z,7.89
2023-02-12T14:15:37.951Z,7.90
2023-02-12T14:16:41.216Z,7.89
2023-02-12T14:17:55.854Z,7.89
2023-02-12T14:19:35.093Z,7.89
2023-02-12T14:20:38.942Z,7.88
2023-02-12T14:21:41.687Z,7.88
2023-02-12T14:22:44.121Z,7.88
2023-02-12T14:23:47.044Z,7.87
2023-02-12T14:24:52.473Z,7.88
2023-02-12T14:26:02.132Z,7.87
2023-02-12T14:27:20.693Z,7.87
2023-02-12T14:28:30.108Z,7.86
2023-02-12T14:29:32.851Z,7.87
2023-02-12T14:30:40.495Z,7.87
2023-02-12T14:31:42.903Z,7.87
2023-02-12T14:32:45.123Z,7.86
2023-02-12T14:33:49.589Z,7.87
2023-02-12T14:34:52.137Z,7.86
2023-02-12T14:36:17.505Z,7.86
2023-02-12T14:37:37.196Z,7.86
2023-02-12T14:38:47.519Z,7.86
2023-02-12T14:39:50.284Z,7.85
2023-02-12T14:40:54.340Z,7.87
2023-02-12T14:42:16.805Z,7.85
2023-02-12T14:43:58.704Z,7.85
2023-02-12T14:45:00.948Z,7.84
2023-02-12T14:46:28.180Z,7.86
2023-02-12T14:47:30.348Z,7.85
2023-02-12T14:48:53.343Z,7.85
2023-02-12T14:50:01.656Z,7.83
2023-02-12T14:51:04.476Z,7.84
2023-02-12T14:52:21.174Z,7.83
2023-02-12T14:53:30.306Z,7.83
2023-02-12T14:54:55.547Z,7.82
2023-02-12T14:55:59.150Z,7.82
2023-02-12T14:57:08.861Z,7.82
2023-02-12T14:58:24.531Z,7.81
2023-02-12T14:59:28.360Z,7.81
2023-02-12T15:00:41.678Z,7.81
2023-02-12T15:01:45.737Z,7.81
2023-02-12T15:03:16.481Z,7.80
2023-02-12T15:04:32.245Z,7.79
2023-02-12T15:05:42.577Z,7.79
2023-02-12T15:06:56.906Z,7.79
2023-02-12T15:08:19.592Z,7.78
2023-02-12T15:09:41.885Z,7.78
2023-02-12T15:10:52.685Z,7.77
2023-02-12T15:12:18.392Z,7.77
2023-02-12T15:13:23.516Z,7.75
2023-02-12T15:14:36.227Z,7.75
2023-02-12T15:15:53.396Z,7.72
2023-02-12T15:17:06.019Z,7.73
2023-02-12T15:18:30.893Z,7.71
2023-02-12T15:19:59.655Z,7.71
2023-02-12T15:21:09.634Z,7.70
2023-02-12T15:22:24.979Z,7.69
2023-02-12T15:23:40.096Z,7.69
2023-02-12T15:24:42.266Z,7.67